Time;durP1;ratioP1;P1;durP2;ratioP2;P2;SDS_P1;SDS_P2;PMS_P1;PMS_P2;Temp;Humidity;BMP_temperature;BMP_pressure;BME280_temperature;BME280_humidity;BME280_pressure;Samples;Min_cycle;Max_cycle;Signal;HPM_P1;HPM_P2
2023/08/18 00:02:00;;;;;;;7.25;4.22;;;20.20;99.90;;;;;;10243046;28;20269;-89
2023/08/18 00:07:03;;;;;;;4.18;3.38;;;20.20;99.90;;;;;;10241915;28;20233;-90
2023/08/18 00:12:06;;;;;;;3.40;3.10;;;20.10;99.90;;;;;;10256008;28;20245;-90
2023/08/18 00:17:09;;;;;;;3.90;3.25;;;20.00;99.90;;;;;;10284192;28;20248;-89
2023/08/18 00:22:12;;;;;;;4.32;3.40;;;19.90;99.90;;;;;;10280244;28;20769;-90
2023/08/18 00:27:15;;;;;;;3.97;3.58;;;19.80;99.90;;;;;;10280628;28;20303;-89
2023/08/18 00:32:17;;;;;;;4.78;3.20;;;19.80;99.90;;;;;;10282047;28;20237;-90
2023/08/18 00:37:20;;;;;;;3.42;3.13;;;19.60;99.90;;;;;;10279985;28;20283;-89
2023/08/18 00:42:23;;;;;;;3.85;3.47;;;19.40;99.90;;;;;;10282246;28;20260;-89
2023/08/18 00:47:27;;;;;;;4.07;3.47;;;19.30;99.90;;;;;;10280967;28;20307;-90
2023/08/18 00:52:30;;;;;;;4.70;3.25;;;19.30;99.90;;;;;;10281805;28;20268;-89
2023/08/18 00:57:34;;;;;;;5.88;3.35;;;19.40;99.90;;;;;;10282815;28;20245;-90
2023/08/18 01:02:37;;;;;;;3.80;3.40;;;19.30;99.90;;;;;;10281994;28;20941;-89
2023/08/18 01:07:39;;;;;;;4.60;4.20;;;19.30;99.90;;;;;;10282122;28;20296;-90
2023/08/18 01:12:57;;;;;;;5.72;3.28;;;19.30;99.90;;;;;;10265022;28;20291;-89
2023/08/18 01:18:04;;;;;;;4.72;3.40;;;19.20;99.90;;;;;;10281338;28;20229;-89
2023/08/18 01:23:08;;;;;;;4.18;3.70;;;19.20;99.90;;;;;;10278321;28;20260;-89
2023/08/18 01:28:11;;;;;;;4.68;4.03;;;19.30;99.90;;;;;;10280986;28;20303;-90
2023/08/18 01:33:38;;;;;;;6.60;3.42;;;19.40;99.90;;;;;;10262922;28;20291;-90
2023/08/18 01:38:43;;;;;;;10.25;3.42;;;19.10;99.90;;;;;;10280480;28;20241;-90
2023/08/18 01:43:46;;;;;;;3.38;3.08;;;19.00;99.90;;;;;;10279183;28;20257;-90
2023/08/18 01:48:48;;;;;;;5.97;3.72;;;19.00;99.90;;;;;;10283683;28;20245;-89
2023/08/18 01:53:51;;;;;;;6.78;4.50;;;19.00;99.90;;;;;;10287404;28;20278;-90
2023/08/18 01:58:54;;;;;;;4.95;4.40;;;19.10;99.90;;;;;;10285997;28;20229;-89
2023/08/18 02:03:57;;;;;;;5.95;4.47;;;19.30;99.90;;;;;;10284992;28;20302;-89
2023/08/18 02:08:59;;;;;;;5.40;3.92;;;19.40;99.90;;;;;;10284572;28;20240;-90
2023/08/18 02:14:02;;;;;;;5.50;4.22;;;19.50;99.90;;;;;;10285486;28;20237;-89
2023/08/18 02:19:05;;;;;;;5.43;4.60;;;19.50;99.90;;;;;;10285166;28;20638;-90
2023/08/18 02:24:08;;;;;;;5.47;5.07;;;19.70;99.90;;;;;;10283595;28;20265;-90
2023/08/18 02:29:10;;;;;;;5.40;5.00;;;20.00;99.90;;;;;;10287824;28;20262;-89
2023/08/18 02:34:13;;;;;;;6.50;5.63;;;20.20;99.90;;;;;;10286416;28;20287;-89
2023/08/18 02:39:16;;;;;;;6.25;5.63;;;20.50;99.90;;;;;;10284785;28;20264;-89
2023/08/18 02:44:20;;;;;;;6.18;5.55;;;20.50;99.90;;;;;;10283321;28;20656;-89
2023/08/18 02:49:23;;;;;;;5.93;5.18;;;20.50;99.90;;;;;;10285882;28;20237;-89
2023/08/18 02:54:26;;;;;;;8.18;5.75;;;20.40;99.90;;;;;;10268052;28;20300;-89
2023/08/18 02:59:28;;;;;;;8.63;6.03;;;20.40;99.90;;;;;;10284689;28;20241;-89
2023/08/18 03:04:31;;;;;;;6.05;5.45;;;20.30;99.90;;;;;;10265901;28;20724;-89
2023/08/18 03:09:35;;;;;;;6.03;5.38;;;20.20;99.90;;;;;;10285059;28;20226;-89
2023/08/18 03:14:37;;;;;;;9.63;5.80;;;20.10;99.90;;;;;;10284703;28;20237;-89
2023/08/18 03:19:40;;;;;;;6.95;6.22;;;20.00;99.90;;;;;;10284309;28;20259;-90
2023/08/18 03:24:42;;;;;;;5.75;5.25;;;19.90;99.90;;;;;;10283618;28;20266;-89
2023/08/18 03:29:45;;;;;;;6.53;5.93;;;19.90;99.90;;;;;;10284110;28;20233;-89
2023/08/18 03:34:48;;;;;;;7.70;5.38;;;19.80;99.90;;;;;;10268669;28;20241;-89
2023/08/18 03:39:55;;;;;;;7.45;4.60;;;19.70;99.90;;;;;;10264675;28;20644;-90
2023/08/18 03:44:58;;;;;;;5.78;4.70;;;19.70;99.90;;;;;;10258628;28;20254;-89
2023/08/18 03:50:00;;;;;;;6.00;5.10;;;19.70;99.90;;;;;;10245554;28;20656;-89
2023/08/18 03:55:04;;;;;;;5.20;4.70;;;19.50;99.90;;;;;;10243228;28;20245;-89
2023/08/18 04:00:10;;;;;;;4.72;4.32;;;19.50;99.90;;;;;;10262117;28;20242;-88
2023/08/18 04:05:16;;;;;;;8.52;5.20;;;19.50;99.90;;;;;;10281184;28;20821;-91
2023/08/18 04:10:18;;;;;;;5.85;5.15;;;19.70;99.90;;;;;;10257789;28;20237;-90
2023/08/18 04:15:21;;;;;;;5.22;4.72;;;19.70;99.90;;;;;;10280211;28;20237;-91
2023/08/18 04:20:24;;;;;;;4.75;4.35;;;19.70;99.90;;;;;;10280920;28;20249;-91
2023/08/18 04:25:27;;;;;;;10.98;6.05;;;19.80;99.90;;;;;;10278360;28;20314;-90
2023/08/18 04:30:30;;;;;;;4.88;4.28;;;19.80;99.90;;;;;;10262831;28;20234;-91
2023/08/18 04:35:33;;;;;;;7.88;4.90;;;19.80;99.90;;;;;;10279394;28;20237;-91
2023/08/18 04:40:38;;;;;;;5.13;4.60;;;19.90;99.90;;;;;;10278082;28;20290;-91
2023/08/18 04:45:41;;;;;;;5.22;4.80;;;20.10;99.90;;;;;;10280352;28;20260;-91
2023/08/18 04:50:46;;;;;;;5.47;4.97;;;20.00;99.90;;;;;;10280126;28;20245;-90
2023/08/18 04:55:49;;;;;;;8.02;4.97;;;20.10;99.90;;;;;;10278966;28;20229;-90
2023/08/18 05:00:53;;;;;;;4.18;3.88;;;20.20;99.90;;;;;;10279431;28;20279;-91
2023/08/18 05:06:00;;;;;;;4.78;4.38;;;20.20;99.90;;;;;;10265122;28;20766;-89
2023/08/18 05:11:07;;;;;;;5.63;5.13;;;20.30;99.90;;;;;;10278341;28;20229;-88
2023/08/18 05:16:10;;;;;;;4.75;4.30;;;20.40;99.90;;;;;;10273235;28;20275;-86
2023/08/18 05:21:13;;;;;;;4.70;4.22;;;20.50;99.90;;;;;;10276478;28;20279;-88
2023/08/18 05:26:15;;;;;;;8.52;4.47;;;20.60;99.90;;;;;;10277995;28;20256;-89
2023/08/18 05:31:18;;;;;;;5.10;4.68;;;20.80;99.90;;;;;;10280329;28;20641;-89
2023/08/18 05:36:21;;;;;;;5.00;4.35;;;20.80;99.90;;;;;;10276252;28;20625;-89
2023/08/18 05:41:24;;;;;;;5.95;5.43;;;20.90;99.90;;;;;;10278367;28;20547;-89
2023/08/18 05:46:27;;;;;;;5.50;4.70;;;21.00;99.90;;;;;;10278702;28;20253;-89
2023/08/18 05:51:29;;;;;;;9.88;5.90;;;21.00;99.90;;;;;;10278940;28;20339;-89
2023/08/18 05:56:32;;;;;;;7.95;5.90;;;21.10;99.90;;;;;;10237177;28;20321;-89
2023/08/18 06:01:35;;;;;;;6.28;4.72;;;21.20;99.90;;;;;;10252937;28;20249;-89
2023/08/18 06:06:38;;;;;;;5.10;4.70;;;21.40;99.90;;;;;;10277688;28;20302;-89
2023/08/18 06:11:41;;;;;;;5.75;5.25;;;21.50;99.90;;;;;;10278935;28;20229;-89
2023/08/18 06:16:44;;;;;;;6.32;5.70;;;21.50;99.90;;;;;;10279690;28;20249;-89
2023/08/18 06:21:46;;;;;;;10.43;6.50;;;21.50;99.90;;;;;;10278015;28;20234;-89
2023/08/18 06:26:49;;;;;;;5.70;5.20;;;21.60;99.90;;;;;;10276956;28;20303;-89
2023/08/18 06:31:51;;;;;;;8.73;7.90;;;21.70;99.90;;;;;;10277411;28;20233;-87
2023/08/18 06:36:54;;;;;;;7.80;7.07;;;21.80;99.90;;;;;;10246982;28;20258;-88
2023/08/18 06:41:57;;;;;;;8.25;7.47;;;21.90;99.90;;;;;;10250900;28;20652;-88
2023/08/18 06:47:00;;;;;;;6.68;5.75;;;22.00;99.90;;;;;;10283969;28;20268;-89
2023/08/18 06:52:03;;;;;;;9.77;8.73;;;22.10;99.90;;;;;;10283932;28;20237;-89
2023/08/18 06:57:06;;;;;;;6.25;5.68;;;22.10;99.90;;;;;;10281611;28;20233;-89
2023/08/18 07:02:09;;;;;;;7.53;6.82;;;22.30;99.90;;;;;;10265494;28;20249;-89
2023/08/18 07:07:11;;;;;;;9.80;8.80;;;22.40;99.90;;;;;;10283767;28;20229;-90
2023/08/18 07:12:14;;;;;;;13.00;8.98;;;22.50;99.90;;;;;;10269626;28;20299;-90
2023/08/18 07:17:17;;;;;;;7.93;7.13;;;22.70;99.90;;;;;;10259623;28;20271;-90
2023/08/18 07:22:20;;;;;;;4.28;3.95;;;22.80;99.90;;;;;;10283082;28;20259;-89
2023/08/18 07:27:22;;;;;;;11.70;9.82;;;23.00;99.90;;;;;;10283862;28;20338;-88
2023/08/18 07:32:25;;;;;;;9.23;8.32;;;23.20;99.90;;;;;;10283533;28;20242;-88
2023/08/18 07:37:27;;;;;;;4.72;4.30;;;23.40;99.90;;;;;;10280647;28;20633;-88
2023/08/18 07:42:50;;;;;;;5.10;4.60;;;23.50;99.90;;;;;;10282337;28;20257;-88
2023/08/18 07:47:53;;;;;;;15.15;10.82;;;23.70;99.90;;;;;;10283057;28;20237;-88
2023/08/18 07:52:55;;;;;;;6.85;6.07;;;23.90;99.90;;;;;;10278511;28;20241;-88
2023/08/18 07:57:58;;;;;;;15.25;13.48;;;24.10;99.90;;;;;;10281412;28;20291;-88
2023/08/18 08:03:01;;;;;;;22.00;15.65;;;24.20;99.90;;;;;;10281703;28;20249;-88
2023/08/18 08:08:04;;;;;;;17.20;13.88;;;24.40;99.90;;;;;;10281792;28;20291;-87
2023/08/18 08:13:06;;;;;;;10.25;7.53;;;24.70;99.90;;;;;;10282607;28;20302;-88
2023/08/18 08:18:09;;;;;;;18.42;15.23;;;25.00;99.90;;;;;;10283587;28;20241;-89
2023/08/18 08:23:15;;;;;;;20.83;16.98;;;25.20;99.90;;;;;;10279175;28;20265;-88
2023/08/18 08:28:18;;;;;;;15.98;14.15;;;25.40;99.90;;;;;;10264022;28;20903;-89
2023/08/18 08:33:21;;;;;;;4.55;4.15;;;25.40;99.90;;;;;;10265018;28;20303;-89
2023/08/18 08:38:27;;;;;;;19.17;15.90;;;25.40;99.90;;;;;;10283384;28;20271;-88
2023/08/18 08:43:32;;;;;;;15.30;9.88;;;25.40;99.90;;;;;;10281644;28;20257;-88
2023/08/18 08:48:37;;;;;;;4.38;4.03;;;25.50;99.90;;;;;;10279575;28;20271;-88
2023/08/18 08:53:47;;;;;;;16.98;12.50;;;25.50;99.90;;;;;;10263517;28;20653;-88
2023/08/18 08:58:50;;;;;;;25.45;16.00;;;25.70;99.90;;;;;;10280940;28;20236;-88
2023/08/18 09:03:55;;;;;;;17.80;15.60;;;25.80;99.90;;;;;;10279493;28;20299;-88
2023/08/18 09:08:59;;;;;;;19.13;13.75;;;25.90;99.90;;;;;;10280418;28;20306;-89
2023/08/18 09:14:04;;;;;;;17.83;11.80;;;26.00;99.90;;;;;;10264251;28;20290;-89
2023/08/18 09:19:12;;;;;;;5.47;4.97;;;26.00;99.90;;;;;;10279176;28;20771;-88
2023/08/18 09:24:14;;;;;;;9.57;7.05;;;26.10;99.60;;;;;;10262452;28;20294;-90
2023/08/18 09:29:17;;;;;;;4.18;3.78;;;26.00;98.40;;;;;;10247751;28;20500;-89
2023/08/18 09:34:31;;;;;;;6.40;5.90;;;26.00;96.70;;;;;;10246612;28;20202;-88
2023/08/18 09:39:34;;;;;;;9.77;5.85;;;26.00;99.10;;;;;;10239821;28;20249;-89
2023/08/18 09:44:40;;;;;;;3.20;2.90;;;26.10;97.50;;;;;;10225152;28;20262;-88
2023/08/18 09:49:46;;;;;;;20.90;14.70;;;26.10;97.00;;;;;;10264704;28;20234;-89
2023/08/18 09:55:06;;;;;;;14.98;11.88;;;26.10;99.70;;;;;;10277370;28;20291;-88
2023/08/18 10:00:11;;;;;;;14.15;9.45;;;26.20;99.10;;;;;;10274414;28;20233;-88
2023/08/18 10:05:15;;;;;;;16.30;13.30;;;26.10;97.80;;;;;;10240013;28;20287;-88
2023/08/18 10:10:19;;;;;;;19.25;16.88;;;26.20;99.90;;;;;;10243733;28;20855;-88
2023/08/18 10:15:22;;;;;;;15.40;12.52;;;26.30;99.40;;;;;;10245223;28;20830;-88
2023/08/18 10:20:28;;;;;;;20.80;14.80;;;26.30;99.90;;;;;;10229387;28;20241;-88
2023/08/18 10:25:35;;;;;;;19.23;14.07;;;26.40;99.20;;;;;;10244555;28;20323;-88
2023/08/18 10:30:38;;;;;;;17.50;14.43;;;26.40;98.70;;;;;;10245231;28;20233;-88
2023/08/18 10:35:43;;;;;;;20.05;14.85;;;26.40;99.90;;;;;;10243747;28;20318;-88
2023/08/18 10:40:51;;;;;;;12.15;10.43;;;26.60;99.90;;;;;;10245789;28;20296;-88
2023/08/18 10:45:59;;;;;;;9.55;8.57;;;26.60;98.80;;;;;;10228753;28;20262;-88
2023/08/18 10:51:02;;;;;;;14.80;12.45;;;26.60;98.50;;;;;;10245324;28;20238;-90
2023/08/18 10:56:05;;;;;;;15.02;12.10;;;26.60;99.10;;;;;;10245520;28;20238;-89
2023/08/18 11:01:09;;;;;;;19.88;10.52;;;26.90;99.90;;;;;;10246183;28;20754;-87
2023/08/18 11:06:12;;;;;;;10.40;7.55;;;27.10;97.40;;;;;;10255980;28;20249;-87
2023/08/18 11:11:16;;;;;;;10.07;9.05;;;27.00;96.20;;;;;;10252451;28;20233;-87
2023/08/18 11:16:19;;;;;;;11.35;8.75;;;27.10;96.30;;;;;;10245420;28;20246;-87
2023/08/18 11:21:22;;;;;;;7.88;7.18;;;27.10;96.70;;;;;;10244041;28;20242;-87
2023/08/18 11:26:25;;;;;;;11.05;6.85;;;;;;;;;;10230261;28;20254;-85
2023/08/18 11:31:28;;;;;;;8.80;7.72;;;27.00;97.30;;;;;;10245571;28;20262;-86
2023/08/18 11:36:32;;;;;;;7.78;7.00;;;27.00;98.00;;;;;;10245954;28;20250;-87
2023/08/18 11:41:39;;;;;;;8.07;7.30;;;27.00;98.50;;;;;;10280969;28;20623;-86
2023/08/18 11:46:41;;;;;;;8.38;6.93;;;27.00;98.90;;;;;;10347233;28;20261;-87
2023/08/18 11:52:04;;;;;;;8.60;7.38;;;27.20;98.70;;;;;;10260695;28;20682;-89
2023/08/18 11:57:06;;;;;;;9.95;9.02;;;27.20;98.60;;;;;;10243525;28;20238;-87
2023/08/18 12:02:09;;;;;;;10.55;9.48;;;27.20;97.30;;;;;;10252495;28;20245;-87
2023/08/18 12:07:12;;;;;;;9.60;8.73;;;27.30;96.40;;;;;;10257044;28;20297;-87
2023/08/18 12:12:17;;;;;;;8.20;7.40;;;27.40;97.00;;;;;;10241834;28;20671;-87
2023/08/18 12:17:20;;;;;;;8.23;7.40;;;27.40;96.20;;;;;;10243005;28;20238;-87
2023/08/18 12:22:22;;;;;;;7.25;6.55;;;27.30;97.30;;;;;;10242934;28;20295;-86
2023/08/18 12:27:29;;;;;;;8.85;8.05;;;27.30;97.80;;;;;;10242229;28;20269;-87
2023/08/18 12:32:32;;;;;;;7.93;7.13;;;27.40;97.30;;;;;;10240498;28;20231;-87
2023/08/18 12:37:35;;;;;;;7.43;6.40;;;27.40;97.90;;;;;;10247731;28;20241;-87
2023/08/18 12:42:38;;;;;;;8.23;7.35;;;27.50;97.10;;;;;;10280764;28;20237;-87
2023/08/18 12:47:41;;;;;;;8.75;7.95;;;27.60;97.60;;;;;;10244131;28;20269;-87
2023/08/18 12:52:44;;;;;;;8.48;7.68;;;27.70;97.00;;;;;;10259151;28;20233;-87
2023/08/18 12:57:46;;;;;;;7.55;6.95;;;27.60;98.70;;;;;;10277968;28;20229;-87
2023/08/18 13:02:50;;;;;;;9.57;8.57;;;27.60;98.30;;;;;;10257802;28;20262;-87
2023/08/18 13:07:52;;;;;;;8.15;7.45;;;27.90;94.40;;;;;;10241644;28;20261;-87
2023/08/18 13:12:55;;;;;;;8.63;7.93;;;28.10;95.00;;;;;;10241212;28;20230;-87
2023/08/18 13:17:57;;;;;;;8.20;7.38;;;28.30;95.40;;;;;;10249327;28;20290;-85
2023/08/18 13:23:00;;;;;;;6.90;6.05;;;28.40;94.00;;;;;;9897882;28;9999852;-86
2023/08/18 13:28:06;;;;;;;7.13;6.53;;;28.50;94.70;;;;;;10239530;28;20721;-87
2023/08/18 13:33:09;;;;;;;9.73;8.82;;;28.50;94.10;;;;;;10238225;28;20241;-86
2023/08/18 13:38:11;;;;;;;9.02;8.25;;;28.60;94.20;;;;;;10237590;28;20648;-86
2023/08/18 13:43:14;;;;;;;10.05;8.18;;;28.60;91.80;;;;;;10240320;28;20246;-86
2023/08/18 13:48:16;;;;;;;6.82;6.13;;;28.50;89.20;;;;;;10270551;28;20338;-86
2023/08/18 13:53:19;;;;;;;9.10;6.60;;;28.40;93.40;;;;;;10283640;28;20253;-87
2023/08/18 13:58:22;;;;;;;6.88;6.28;;;28.30;90.20;;;;;;10248691;28;20238;-86
2023/08/18 14:03:24;;;;;;;6.72;6.10;;;28.30;93.90;;;;;;10245991;28;20284;-86
2023/08/18 14:08:27;;;;;;;7.05;6.45;;;28.20;95.10;;;;;;10242482;28;20265;-86
2023/08/18 14:13:30;;;;;;;7.68;6.90;;;28.20;94.80;;;;;;10242121;28;20242;-85
2023/08/18 14:18:34;;;;;;;7.95;7.25;;;28.00;94.80;;;;;;10240749;28;20700;-85
2023/08/18 14:23:37;;;;;;;8.20;7.50;;;27.90;94.40;;;;;;10254237;28;20298;-86
2023/08/18 14:28:41;;;;;;;6.95;6.35;;;27.80;94.50;;;;;;10263591;28;20292;-86
2023/08/18 14:33:44;;;;;;;9.38;8.43;;;27.70;96.20;;;;;;10249117;28;20242;-86
2023/08/18 14:38:49;;;;;;;7.43;6.72;;;27.60;93.90;;;;;;10280006;28;20794;-86
2023/08/18 14:43:51;;;;;;;7.60;6.90;;;27.60;92.70;;;;;;10261598;28;20238;-86
2023/08/18 14:48:54;;;;;;;8.43;6.07;;;27.50;94.60;;;;;;10245008;28;20803;-86
2023/08/18 14:53:56;;;;;;;5.65;5.25;;;27.40;87.10;;;;;;10268662;28;20299;-86
2023/08/18 14:58:59;;;;;;;9.18;6.65;;;27.50;94.30;;;;;;10268445;28;20241;-85
2023/08/18 15:04:03;;;;;;;8.43;7.38;;;27.40;93.60;;;;;;10248891;28;20237;-85
2023/08/18 15:09:06;;;;;;;8.25;7.55;;;27.40;93.70;;;;;;10248491;28;20258;-85
2023/08/18 15:14:08;;;;;;;7.07;6.47;;;27.30;92.60;;;;;;10253893;28;20694;-85
2023/08/18 15:19:12;;;;;;;9.80;7.22;;;27.40;91.50;;;;;;10272367;28;20233;-85
2023/08/18 15:24:15;;;;;;;12.27;7.80;;;27.40;91.70;;;;;;10253994;28;20274;-85
2023/08/18 15:29:18;;;;;;;7.28;6.63;;;27.30;92.30;;;;;;10243908;28;20642;-85
2023/08/18 15:34:20;;;;;;;8.25;7.45;;;27.30;92.50;;;;;;10244779;28;20308;-85
2023/08/18 15:39:23;;;;;;;8.73;7.85;;;27.30;91.80;;;;;;10272062;28;20241;-85
2023/08/18 15:44:25;;;;;;;8.73;7.03;;;27.40;90.30;;;;;;10283626;28;20258;-85
2023/08/18 15:49:28;;;;;;;6.45;5.88;;;27.40;87.20;;;;;;10283071;28;20260;-85
2023/08/18 15:54:30;;;;;;;7.35;6.68;;;27.40;82.00;;;;;;10255889;28;20692;-85
2023/08/18 15:59:33;;;;;;;5.70;5.20;;;27.30;89.90;;;;;;10254835;28;20250;-85
2023/08/18 16:04:35;;;;;;;7.45;6.65;;;27.20;90.80;;;;;;10282549;28;20310;-85
2023/08/18 16:09:41;;;;;;;9.70;6.97;;;27.20;90.90;;;;;;10256658;28;20288;-86
2023/08/18 16:14:44;;;;;;;7.80;7.00;;;27.10;90.80;;;;;;10245088;28;20238;-85
2023/08/18 16:19:49;;;;;;;6.55;5.95;;;27.00;91.00;;;;;;10242717;28;20230;-85
2023/08/18 16:24:52;;;;;;;8.25;7.45;;;26.90;91.40;;;;;;10243535;28;20266;-85
2023/08/18 16:29:54;;;;;;;9.00;7.63;;;26.80;91.30;;;;;;10242519;28;20682;-85
2023/08/18 16:34:57;;;;;;;8.93;7.63;;;26.60;91.90;;;;;;10261459;28;20226;-85
2023/08/18 16:40:00;;;;;;;11.18;8.30;;;26.60;92.00;;;;;;10260179;28;20238;-85
2023/08/18 16:45:03;;;;;;;11.65;10.50;;;26.50;92.30;;;;;;10257321;28;20280;-85
2023/08/18 16:50:06;;;;;;;7.82;6.78;;;26.50;92.60;;;;;;10252500;28;20260;-85
2023/08/18 16:55:09;;;;;;;8.95;7.22;;;26.50;92.90;;;;;;10256615;28;20230;-85
2023/08/18 17:00:12;;;;;;;9.82;8.93;;;26.40;92.70;;;;;;10250590;28;20237;-85
2023/08/18 17:05:15;;;;;;;8.27;7.55;;;26.30;92.40;;;;;;10259326;28;20246;-86
2023/08/18 17:10:17;;;;;;;9.52;8.45;;;26.20;93.00;;;;;;10242719;28;20226;-87
2023/08/18 17:15:20;;;;;;;8.77;8.02;;;26.00;93.20;;;;;;10281137;28;20606;-87
2023/08/18 17:20:22;;;;;;;8.93;7.80;;;25.80;93.20;;;;;;10280764;28;20293;-87
2023/08/18 17:25:25;;;;;;;12.70;7.65;;;25.50;93.90;;;;;;10281367;28;20342;-87
2023/08/18 17:30:28;;;;;;;15.30;7.80;;;25.30;93.70;;;;;;10278587;28;20230;-87
2023/08/18 17:35:30;;;;;;;7.45;6.55;;;24.90;94.30;;;;;;10272940;28;20237;-87
2023/08/18 17:40:35;;;;;;;14.77;7.40;;;24.50;94.00;;;;;;10278265;28;20240;-87
2023/08/18 17:45:40;;;;;;;13.75;7.18;;;24.20;95.80;;;;;;10274924;28;20303;-86
2023/08/18 17:50:42;;;;;;;7.88;7.07;;;23.70;97.00;;;;;;10266822;28;20247;-87
2023/08/18 17:55:47;;;;;;;8.70;7.35;;;23.50;99.40;;;;;;10227063;28;20246;-87
2023/08/18 18:00:51;;;;;;;8.27;7.40;;;23.20;99.90;;;;;;10253189;28;20233;-87
2023/08/18 18:05:54;;;;;;;8.75;7.63;;;22.90;99.90;;;;;;10277940;28;20303;-87
2023/08/18 18:10:57;;;;;;;15.45;7.65;;;22.70;99.90;;;;;;10279128;28;20238;-87
2023/08/18 18:15:59;;;;;;;11.10;8.43;;;22.50;99.90;;;;;;10268483;28;20720;-87
2023/08/18 18:21:02;;;;;;;9.43;8.23;;;22.30;99.90;;;;;;10240266;28;20742;-87
2023/08/18 18:26:04;;;;;;;15.60;8.50;;;22.10;99.90;;;;;;10238661;28;20262;-87
2023/08/18 18:31:07;;;;;;;18.70;8.68;;;21.90;99.90;;;;;;10275258;28;20286;-87
2023/08/18 18:36:10;;;;;;;11.95;8.02;;;21.80;99.90;;;;;;10255159;28;20263;-88
2023/08/18 18:41:12;;;;;;;12.18;9.13;;;21.70;99.90;;;;;;10249112;28;20366;-87
2023/08/18 18:46:15;;;;;;;11.13;8.00;;;21.60;99.90;;;;;;10249741;28;20250;-87
2023/08/18 18:51:18;;;;;;;6.93;6.20;;;21.40;99.90;;;;;;10249903;28;20637;-87
2023/08/18 18:56:20;;;;;;;6.75;6.15;;;21.30;99.90;;;;;;10254421;28;20241;-87
2023/08/18 19:01:23;;;;;;;9.88;6.88;;;21.40;99.90;;;;;;10261363;28;20246;-86
2023/08/18 19:06:26;;;;;;;6.70;6.10;;;21.50;99.90;;;;;;10283909;28;20295;-85
2023/08/18 19:11:29;;;;;;;6.97;6.28;;;21.40;99.90;;;;;;10256833;28;20240;-87
2023/08/18 19:16:31;;;;;;;7.43;6.32;;;21.50;99.90;;;;;;10274529;28;20308;-87
2023/08/18 19:21:34;;;;;;;12.13;7.78;;;21.50;99.90;;;;;;10245305;28;20695;-86
2023/08/18 19:26:36;;;;;;;8.18;7.32;;;21.40;99.90;;;;;;10267290;28;20257;-87
2023/08/18 19:31:39;;;;;;;7.10;6.40;;;21.20;99.90;;;;;;9924075;28;9999787;-86
2023/08/18 19:36:42;;;;;;;7.05;6.28;;;21.10;99.90;;;;;;10279295;28;20276;-87
2023/08/18 19:41:45;;;;;;;10.75;6.45;;;21.10;99.90;;;;;;10282295;28;20241;-86
2023/08/18 19:46:47;;;;;;;10.43;7.35;;;21.10;99.90;;;;;;10281419;28;20261;-87
2023/08/18 19:51:50;;;;;;;8.63;7.50;;;21.00;99.90;;;;;;10247452;28;20234;-87
2023/08/18 19:56:53;;;;;;;11.05;7.65;;;20.90;99.90;;;;;;10253104;28;20655;-86
2023/08/18 20:01:55;;;;;;;10.93;8.63;;;20.70;99.90;;;;;;10280817;28;20291;-86
2023/08/18 20:07:01;;;;;;;9.85;7.70;;;20.70;99.90;;;;;;10280535;28;20280;-86
2023/08/18 20:12:04;;;;;;;6.75;6.15;;;20.50;99.90;;;;;;10261230;28;20304;-86
2023/08/18 20:17:06;;;;;;;13.45;6.95;;;20.60;99.90;;;;;;10251558;28;20291;-86
2023/08/18 20:22:09;;;;;;;13.68;7.43;;;20.60;99.90;;;;;;10279337;28;20655;-86
2023/08/18 20:27:12;;;;;;;8.10;7.07;;;20.60;99.90;;;;;;10279292;28;20313;-86
2023/08/18 20:32:14;;;;;;;7.20;6.55;;;20.40;99.90;;;;;;10290861;28;20221;-86
2023/08/18 20:37:20;;;;;;;6.80;6.20;;;20.30;99.90;;;;;;10273323;28;20635;-86
2023/08/18 20:42:24;;;;;;;8.63;7.78;;;20.40;99.90;;;;;;10277035;28;20237;-86
2023/08/18 20:47:26;;;;;;;7.20;6.38;;;20.40;99.90;;;;;;10255213;28;20730;-85
2023/08/18 20:52:29;;;;;;;7.70;7.00;;;20.30;99.90;;;;;;10241814;28;20238;-86
2023/08/18 20:57:32;;;;;;;7.25;6.57;;;20.20;99.90;;;;;;10276250;28;20259;-85
2023/08/18 21:02:35;;;;;;;6.80;6.25;;;20.20;99.90;;;;;;10261131;28;20310;-86
2023/08/18 21:07:38;;;;;;;8.50;7.70;;;20.10;99.90;;;;;;10277684;28;20273;-86
2023/08/18 21:12:42;;;;;;;10.18;7.97;;;20.10;99.90;;;;;;10278553;28;20244;-86
2023/08/18 21:17:46;;;;;;;8.63;7.82;;;20.10;99.90;;;;;;10275290;28;20740;-86
2023/08/18 21:22:50;;;;;;;7.78;7.07;;;20.10;99.90;;;;;;10268526;28;20686;-86
2023/08/18 21:27:53;;;;;;;8.45;7.60;;;20.30;99.90;;;;;;10258526;28;20322;-86
2023/08/18 21:32:57;;;;;;;8.85;8.02;;;20.30;99.90;;;;;;10259480;28;20651;-86
2023/08/18 21:38:00;;;;;;;8.02;7.32;;;20.10;99.90;;;;;;10242097;28;20299;-85
2023/08/18 21:43:03;;;;;;;8.75;7.82;;;20.00;99.90;;;;;;10271625;28;20331;-85
2023/08/18 21:48:07;;;;;;;10.35;8.70;;;20.00;99.90;;;;;;10277906;28;20258;-85
2023/08/18 21:53:10;;;;;;;8.57;7.70;;;19.90;99.90;;;;;;10269386;28;20230;-85
2023/08/18 21:58:12;;;;;;;10.23;9.15;;;19.90;99.90;;;;;;10248013;28;20320;-86
2023/08/18 22:03:15;;;;;;;8.50;7.63;;;19.80;99.90;;;;;;10263371;28;20234;-86
2023/08/18 22:08:18;;;;;;;9.30;7.38;;;19.60;99.90;;;;;;10253384;28;20310;-86
2023/08/18 22:13:21;;;;;;;7.95;7.25;;;19.70;99.90;;;;;;10284332;28;20229;-86
2023/08/18 22:18:24;;;;;;;8.45;7.75;;;19.80;99.90;;;;;;10268920;28;20299;-86
2023/08/18 22:23:26;;;;;;;8.70;7.90;;;19.70;99.90;;;;;;10244475;28;20265;-86
2023/08/18 22:28:29;;;;;;;9.57;8.65;;;19.60;99.90;;;;;;10246281;28;20303;-86
2023/08/18 22:33:31;;;;;;;6.85;6.25;;;19.40;99.90;;;;;;10250042;28;20238;-86
2023/08/18 22:38:34;;;;;;;9.45;8.20;;;19.60;99.90;;;;;;10251978;28;20300;-86
2023/08/18 22:43:38;;;;;;;6.53;5.93;;;19.60;99.90;;;;;;10263507;28;20249;-86
2023/08/18 22:48:40;;;;;;;11.18;9.50;;;19.60;99.90;;;;;;10276933;28;20254;-86
2023/08/18 22:53:50;;;;;;;9.32;8.35;;;19.50;99.90;;;;;;10251645;28;20621;-86
2023/08/18 22:58:53;;;;;;;10.00;9.00;;;19.50;99.90;;;;;;10271110;28;20299;-86
2023/08/18 23:03:55;;;;;;;7.30;6.70;;;19.40;99.90;;;;;;10280793;28;20241;-86
2023/08/18 23:08:58;;;;;;;7.20;6.60;;;19.30;99.90;;;;;;10264900;28;20257;-86
2023/08/18 23:14:01;;;;;;;10.43;9.32;;;19.40;99.90;;;;;;10243724;28;20226;-86
2023/08/18 23:19:04;;;;;;;7.90;7.20;;;19.40;99.90;;;;;;10246202;28;20257;-86
2023/08/18 23:24:06;;;;;;;11.35;8.88;;;19.40;99.90;;;;;;10258918;28;20269;-86
2023/08/18 23:29:09;;;;;;;9.95;8.63;;;19.40;99.90;;;;;;10273768;28;20785;-86
2023/08/18 23:34:11;;;;;;;8.85;8.00;;;19.40;99.90;;;;;;10281373;28;20303;-86
2023/08/18 23:39:15;;;;;;;11.93;8.60;;;19.30;99.90;;;;;;10264104;28;20283;-85
2023/08/18 23:44:17;;;;;;;14.90;10.80;;;19.30;99.90;;;;;;10257149;28;20949;-85
2023/08/18 23:49:20;;;;;;;8.80;8.00;;;19.20;99.90;;;;;;10256369;28;20249;-86
2023/08/18 23:54:22;;;;;;;16.17;10.95;;;19.20;99.90;;;;;;10269464;28;20772;-86
2023/08/18 23:59:25;;;;;;;17.15;9.85;;;19.20;99.90;;;;;;10253093;28;20679;-86
